Accueil
METAR-TAF:

METAR-TAF

Aéroports :

Nukus, Ouzbékistan

latitude: 42-28-48N, longitude: 059-37-48E, altitude: 77 m

Observation

Le bulletin a été fait il y a 24 minutes, à 15:00 UTC
Vent 6 kt de nord-ouest
Température 6°C
Humidité 33%
Pression 1029 hPa
Visibilité 10 km ou plus
pas de nuages en-dessous de 1500 mètres et pas de cumulonimbus.

METAR: UTNN 291500Z 31006KT CAVOK 06/M09 Q1029 R33/CLRD60 NOSIG

Heure: 20:24 (15:24 UTC)

Prévision

Le bulletin a été fait il y a 4 heures et 24 minutes, à 11:00 UTC
Prévision valable du 29 à 12 UTC au 01 à 12 UTC
Vent 8 kt de nord avec des rafales jusqu'à 18 kt
Visibilité 10 km ou plus
pas de nuages en-dessous de 1500 mètres et pas de cumulonimbus.

TAF: UTNN 291100Z 2912/0112 35008G18KT CAVOK

Observations et prévisions météorologiques de plus de 4000 aéroports (messages METAR et TAF).

Les stations disponibles sont représentées par des disques jaunes et rouges sur la carte.

Passer la souris dessus pour voir le nom de la station.

Cliquer dessus pour voir les observations et prévisions météorologiques.

Pour changer de carte: cliquez sur les boutons verts avec une croix noire pour zoomer, sur le bouton vert avec un tiret pour effectuer un zoom arrière, ou sur les flèches vertes pour les cartes adjacentes.


METAR-TAF: